Terminal Aerodrome Forecast
Issued by NWS

Home | Current Version | Previous Version | Text Only | Print | Product List | Glossary On
Versions: 1 2 3 4 5 6 7 8 9 10 11 12
000
FTUS46 KPDT 061729
TAFPSC
TAF
KPSC 061729Z 0618/0718 35005KT P6SM FEW300
     FM070000 VRB05KT P6SM FEW300
     FM070800 22004KT P6SM FEW120 SCT300=

USA.gov is the U.S. government's official web portal to all federal, state and local government web resources and services.